Detalii statie UNIC PROD [00001D09]

Toti senzorii

Date Temperatura solului [C]Precipitatii [mm]Voltaj baterie [mV]Leaf Wetness [Min]HC Air temperature [C]HC Relative humidity [%]Punctul de roua [C]
medieminmaxsumaultimatimpmedieminmaxmediemediemin
2017-12-10 22:00:00 5.4 5.3 5.5 0 6864 1.2 0.8 1.58 79.96 -1.9 -2.2
2017-12-10 23:00:00 5.3 5.1 5.5 0 6854 0.46 0.06 0.92 83.28 -2 -2.3
2017-12-11 00:00:00 5.3 5.2 5.4 0 6844 0.11 -0.22 0.76 83.59 -2.2 -2.5
2017-12-11 01:00:00 5.2 5 5.3 0 6834 -0.46 -1.09 0.01 84.83 -2.6 -2.9
2017-12-11 02:00:00 5.2 5.1 5.4 0 6826 -1.18 -1.9 -0.92 90.71 -2.4 -2.9
2017-12-11 03:00:00 5.1 5 5.3 0 6816 -1.84 -2.66 -1.32 94.13 -2.6 -3.5
2017-12-11 04:00:00 5 5 5.1 0 6806 -3 -3.89 -2.21 96.72 -3.3 -4.1
2017-12-11 05:00:00 4.9 4.8 5.1 0 6816 -3.62 -4.26 -3.15 100 -3.4 -4.1
2017-12-11 06:00:00 4.9 4.8 5 0 6806 -3.34 -4.18 -2.5 100 -3.2 -4
2017-12-11 07:00:00 4.8 4.8 5 0 6816 -3.65 -4.09 -3.26 100 -3.5 -3.9
2017-12-11 08:00:00 4.8 4.7 4.9 0 6826 -3.28 -3.86 -2.58 100 -3.1 -3.7
2017-12-11 09:00:00 4.7 4.6 4.8 0 6932 -1.64 -2.52 -1.05 99.76 -1.5 -2.4
2017-12-11 10:00:00 4.6 4.4 4.7 0 7148 -0.06 -1.05 1.11 96.84 -0.4 -1
2017-12-11 11:00:00 4.5 4.5 4.6 0 7254 3.35 1.46 5.48 71.81 -1.4 -3.1
2017-12-11 12:00:00 4.5 4.5 4.7 0 7246 6.86 5.5 7.74 53.16 -2.1 -3.2
2017-12-11 13:00:00 4.5 4.4 4.6 0 7254 5.9 5.53 6.41 64.56 -0.2 -0.8
2017-12-11 14:00:00 4.5 4.4 4.6 0 7148 6.71 6.48 7.15 61.01 -0.3 -0.8
2017-12-11 15:00:00 4.5 4.5 4.6 0 7088 6.46 5.79 6.94 69.9 1.1 -0.2
2017-12-11 16:00:00 4.6 4.5 4.8 0 6972 5.11 4.56 5.67 83.12 2.2 1.2
2017-12-11 17:00:00 4.7 4.6 4.8 0 6932 3.1 1.95 4.41 95.94 2.4 1.5
2017-12-11 18:00:00 4.8 4.7 5 0 6914 1.68 1.14 2.26 100 1.6 1.1
2017-12-11 19:00:00 4.9 4.8 5 0 6904 1.34 0.56 2.26 99.91 1.2 0.5
2017-12-11 20:00:00 4.9 4.8 5 0 6884 0.39 -0.03 0.77 100 0.3 0
2017-12-11 21:00:00 4.9 4.8 5.1 0 6874 -0.54 -1.24 0.31 100 -0.4 -1.1
2017-12-11 22:00:00 4.9 4.9 5 0 6854 -1.44 -2.08 -0.95 100 -1.2 -1.9
2017-12-11 23:00:00 4.9 4.8 5 0 6844 -1.17 -1.53 -0.24 100 -1 -1.4
2017-12-12 00:00:00 4.9 4.8 5.1 0 6834 -1.21 -1.49 -0.59 100 -1 -1.3
2017-12-12 01:00:00 4.7 4.7 4.8 0 6834 -0.66 -1.71 0.33 100 -0.5 -1.6
2017-12-12 02:00:00 4.8 4.7 4.9 0 6826 -1.17 -2.4 -0.26 100 -1 -2.3
2017-12-12 03:00:00 4.7 4.6 4.9 0 6826 -0.98 -2.46 0.03 100 -0.8 -2.3
2017-12-12 04:00:00 4.7 4.6 4.8 0 6816 -2.11 -3.04 -1.14 100 -1.9 -2.9
2017-12-12 05:00:00 4.6 4.5 4.8 0 6816 -2.31 -3.11 -1.2 100 -2.1 -3
2017-12-12 06:00:00 4.6 4.5 4.7 0 6806 -3.1 -3.84 -2.23 100 -2.9 -3.7
2017-12-12 07:00:00 4.5 4.5 4.7 0 6806 -2.25 -2.93 -1.25 100 -2.1 -2.8
2017-12-12 08:00:00 4.4 4.4 4.6 0 6854 -2.35 -2.83 -1.75 100 -2.2 -2.7
2017-12-12 09:00:00 4.4 4.3 4.5 0 7236 -0.73 -2.66 1.13 100 -0.6 -2.5
2017-12-12 10:00:00 4.3 4.3 4.5 0.2 7264 2.5 1.56 3.73 100 2.4 1.5
2017-12-12 11:00:00 4.3 4.1 4.4 0 7254 5.09 3.96 6.04 89.72 3.4 2.8
2017-12-12 12:00:00 4.2 4.2 4.3 0 7254 8.14 6.8 9.68 73.27 3.5 3
2017-12-12 13:00:00 4.2 4.1 4.4 0 7246 10.64 9.57 11.7 67 4.6 3.9
2017-12-12 14:00:00 4.3 4.2 4.4 0 7246 12.72 11.78 13.49 64.12 5.9 4.8
2017-12-12 15:00:00 4.4 4.3 4.6 0 7236 13.82 13.58 14 62.23 6.5 5.9
2017-12-12 16:00:00 4.5 4.5 4.7 0 7108 13 11.97 13.73 69.05 7.3 6.5
2017-12-12 17:00:00 4.7 4.6 4.9 0 6922 8.58 5.78 11.4 89.06 6.7 5
2017-12-12 18:00:00 4.9 4.8 5 0 6914 5.81 4.33 6.82 100 5.7 4.3
2017-12-12 19:00:00 5 4.9 5.1 0 6894 3.12 1.36 4.51 100 3 1.3
2017-12-12 20:00:00 5 5 5.2 0 6874 4.08 3.16 4.79 100 4 3.1
2017-12-12 21:00:00 5.1 5 5.3 0 6874 5.04 4.49 5.44 98.59 4.7 3.9